createdAt,value
2016-09-12T00:00:56.525Z,19.19
2016-09-12T00:01:56.831Z,19.25
2016-09-12T00:02:56.526Z,19.31
2016-09-12T00:03:56.536Z,19.19
2016-09-12T00:04:56.537Z,19.13
2016-09-12T00:05:56.586Z,19.18
2016-09-12T00:06:56.846Z,19.08
2016-09-12T00:07:56.527Z,19.06
2016-09-12T00:08:56.532Z,19.07
2016-09-12T00:09:56.844Z,19.04
2016-09-12T00:10:56.512Z,19
2016-09-12T00:11:56.515Z,19.04
2016-09-12T00:12:56.517Z,18.94
2016-09-12T00:13:56.521Z,18.95
2016-09-12T00:14:56.511Z,18.92
2016-09-12T00:15:56.808Z,18.88
2016-09-12T00:16:56.520Z,18.91
2016-09-12T00:17:56.512Z,18.91
2016-09-12T00:18:56.509Z,18.78
2016-09-12T00:19:56.504Z,18.82
2016-09-12T00:20:56.521Z,18.84
2016-09-12T00:21:56.505Z,18.78
2016-09-12T00:22:56.508Z,18.7
2016-09-12T00:23:56.488Z,18.72
2016-09-12T00:24:56.497Z,18.67
2016-09-12T00:25:56.498Z,18.65
2016-09-12T00:26:56.500Z,18.63
2016-09-12T00:27:56.498Z,18.58
2016-09-12T00:28:56.495Z,18.52
2016-09-12T00:29:56.486Z,18.52
2016-09-12T00:30:56.525Z,18.45
2016-09-12T00:31:56.506Z,18.52
2016-09-12T00:32:56.507Z,18.52
2016-09-12T00:33:56.479Z,18.47
2016-09-12T00:34:56.780Z,18.45
2016-09-12T00:35:56.480Z,18.48
2016-09-12T00:36:56.482Z,18.5
2016-09-12T00:37:56.479Z,18.51
2016-09-12T00:38:56.481Z,18.47
2016-09-12T00:39:56.461Z,18.47
2016-09-12T00:40:56.468Z,18.45
2016-09-12T00:41:56.458Z,18.47
2016-09-12T00:42:56.465Z,18.58
2016-09-12T00:43:56.761Z,18.58
2016-09-12T00:44:56.467Z,18.54
2016-09-12T00:45:56.462Z,18.41
2016-09-12T00:46:56.452Z,18.42
2016-09-12T00:47:56.458Z,18.45
2016-09-12T00:48:56.483Z,18.44
2016-09-12T00:49:56.762Z,18.45
2016-09-12T00:50:57.380Z,18.32
2016-09-12T00:51:56.767Z,18.3
2016-09-12T00:52:56.470Z,18.33
2016-09-12T00:53:56.446Z,18.36
2016-09-12T00:54:56.439Z,18.3
2016-09-12T00:55:56.498Z,18.42
2016-09-12T00:56:56.862Z,18.33
2016-09-12T00:57:56.816Z,18.32
2016-09-12T00:58:56.737Z,18.33
2016-09-12T00:59:56.424Z,18.32
2016-09-12T01:00:57.011Z,18.32
2016-09-12T01:01:58.800Z,18.33
2016-09-12T01:02:58.336Z,18.29
2016-09-12T01:03:57.698Z,18.3
2016-09-12T01:04:56.731Z,18.25
2016-09-12T01:05:56.572Z,18.32
2016-09-12T01:06:56.439Z,18.33
2016-09-12T01:07:56.403Z,18.23
2016-09-12T01:08:56.475Z,18.26
2016-09-12T01:09:56.753Z,18.25
2016-09-12T01:10:56.807Z,18.2
2016-09-12T01:11:57.312Z,18.33
2016-09-12T01:12:56.762Z,18.32
2016-09-12T01:13:56.414Z,18.23
2016-09-12T01:14:56.407Z,18.14
2016-09-12T01:15:56.405Z,18.18
2016-09-12T01:16:56.945Z,18.21
2016-09-12T01:17:56.595Z,18.18
2016-09-12T01:18:56.386Z,18.2
2016-09-12T01:19:56.991Z,18.05
2016-09-12T01:20:56.382Z,18.12
2016-09-12T01:21:56.444Z,18.08
2016-09-12T01:22:56.391Z,18.17
2016-09-12T01:23:56.389Z,18.12
2016-09-12T01:24:56.389Z,18.11
2016-09-12T01:25:56.385Z,18.03
2016-09-12T01:26:56.367Z,18.14
2016-09-12T01:27:56.703Z,18.08
2016-09-12T01:28:56.373Z,18.14
2016-09-12T01:29:56.384Z,18.08
2016-09-12T01:30:56.363Z,18.12
2016-09-12T01:31:56.409Z,18.03
2016-09-12T01:32:56.358Z,18.02
2016-09-12T01:33:56.373Z,18.05
2016-09-12T01:34:56.359Z,18.03
2016-09-12T01:35:56.349Z,18.07
2016-09-12T01:36:56.367Z,18.05
2016-09-12T01:37:56.396Z,18.08
2016-09-12T01:38:56.358Z,17.99
2016-09-12T01:39:56.349Z,17.95
2016-09-12T01:40:56.349Z,17.95
2016-09-12T01:41:56.338Z,17.9
2016-09-12T01:42:56.335Z,17.86
2016-09-12T01:43:56.353Z,17.9
2016-09-12T01:44:56.327Z,17.84
2016-09-12T01:45:56.351Z,17.86
2016-09-12T01:46:56.345Z,17.84
2016-09-12T01:47:56.623Z,17.89
2016-09-12T01:48:56.330Z,17.84
2016-09-12T01:49:56.322Z,17.77
2016-09-12T01:50:56.313Z,17.79
2016-09-12T01:51:56.630Z,17.78
2016-09-12T01:52:56.332Z,17.78
2016-09-12T01:53:56.347Z,17.66
2016-09-12T01:54:56.911Z,17.66
2016-09-12T01:55:56.611Z,17.79
2016-09-12T01:56:56.620Z,17.77
2016-09-12T01:57:56.306Z,17.75
2016-09-12T01:58:56.327Z,17.78
2016-09-12T01:59:56.598Z,17.75
2016-09-12T02:00:56.309Z,17.84
2016-09-12T02:01:56.287Z,17.82
2016-09-12T02:02:56.478Z,17.81
2016-09-12T02:03:56.293Z,17.84
2016-09-12T02:04:56.293Z,17.81
2016-09-12T02:05:56.320Z,17.81
2016-09-12T02:06:56.287Z,17.77
2016-09-12T02:07:56.318Z,17.79
2016-09-12T02:08:56.427Z,17.79
2016-09-12T02:09:57.808Z,17.81
2016-09-12T02:10:56.279Z,17.79
2016-09-12T02:11:56.569Z,17.82
2016-09-12T02:12:56.283Z,17.79
2016-09-12T02:13:57.214Z,17.81
2016-09-12T02:14:56.262Z,17.71
2016-09-12T02:15:56.274Z,17.75
2016-09-12T02:16:56.255Z,17.7
2016-09-12T02:17:57.104Z,17.62
2016-09-12T02:18:59.883Z,17.68
2016-09-12T02:19:58.150Z,17.66
2016-09-12T02:20:58.006Z,17.68
2016-09-12T02:21:57.479Z,17.62
2016-09-12T02:22:56.245Z,17.71
2016-09-12T02:23:56.812Z,17.64
2016-09-12T02:24:56.287Z,17.71
2016-09-12T02:25:56.404Z,17.71
2016-09-12T02:26:56.338Z,17.64
2016-09-12T02:28:57.132Z,17.63
2016-09-12T02:29:56.295Z,17.64
2016-09-12T02:30:56.233Z,17.59
2016-09-12T02:31:57.020Z,17.59
2016-09-12T02:32:56.221Z,17.55
2016-09-12T02:33:56.213Z,17.56
2016-09-12T02:34:56.223Z,17.56
2016-09-12T02:35:56.237Z,17.51
2016-09-12T02:36:56.526Z,17.55
2016-09-12T02:37:56.511Z,17.58
2016-09-12T02:38:56.260Z,17.55
2016-09-12T02:39:56.222Z,17.54
2016-09-12T02:40:56.511Z,17.56
2016-09-12T02:41:56.195Z,17.55
2016-09-12T02:42:56.205Z,17.51
2016-09-12T02:43:56.250Z,17.51
2016-09-12T02:44:56.511Z,17.49
2016-09-12T02:45:56.187Z,17.43
2016-09-12T02:46:56.186Z,17.48
2016-09-12T02:47:56.215Z,17.54
2016-09-12T02:48:56.177Z,17.49
2016-09-12T02:49:56.176Z,17.51
2016-09-12T02:50:56.170Z,17.51
2016-09-12T02:51:56.175Z,17.52
2016-09-12T02:52:56.174Z,17.43
2016-09-12T02:53:56.170Z,17.54
2016-09-12T02:54:56.180Z,17.43
2016-09-12T02:55:56.157Z,17.4
2016-09-12T02:56:56.187Z,17.41
2016-09-12T02:57:56.154Z,17.41
2016-09-12T02:58:56.162Z,17.41
2016-09-12T02:59:56.149Z,17.38
2016-09-12T03:00:56.448Z,17.43
2016-09-12T03:01:56.145Z,17.37
2016-09-12T03:02:56.144Z,17.43
2016-09-12T03:03:56.442Z,17.33
2016-09-12T03:04:56.141Z,17.41
2016-09-12T03:05:56.151Z,17.43
2016-09-12T03:06:56.457Z,17.38
2016-09-12T03:07:56.145Z,17.4
2016-09-12T03:08:56.135Z,17.34
2016-09-12T03:09:56.125Z,17.38
2016-09-12T03:10:56.139Z,17.38
2016-09-12T03:11:56.123Z,17.34
2016-09-12T03:12:56.113Z,17.3
2016-09-12T03:13:56.124Z,17.22
2016-09-12T03:14:56.119Z,17.31
2016-09-12T03:15:56.459Z,17.38
2016-09-12T03:16:56.104Z,17.37
2016-09-12T03:17:56.110Z,17.3
2016-09-12T03:18:56.121Z,17.3
2016-09-12T03:19:56.120Z,17.25
2016-09-12T03:20:56.094Z,17.26
2016-09-12T03:21:56.183Z,17.3
2016-09-12T03:22:56.404Z,17.3
2016-09-12T03:23:56.379Z,17.28
2016-09-12T03:24:56.086Z,17.26
2016-09-12T03:25:56.103Z,17.15
2016-09-12T03:26:56.075Z,17.12
2016-09-12T03:27:56.852Z,17.15
2016-09-12T03:28:58.711Z,17.16
2016-09-12T03:29:56.086Z,17.22
2016-09-12T03:30:56.373Z,17.06
2016-09-12T03:31:57.149Z,17.08
2016-09-12T03:32:56.059Z,17.07
2016-09-12T03:33:56.090Z,17.11
2016-09-12T03:34:56.066Z,17.14
2016-09-12T03:35:56.505Z,17.19
2016-09-12T03:36:58.377Z,17.15
2016-09-12T03:37:56.822Z,17.07
2016-09-12T03:38:57.349Z,17.22
2016-09-12T03:39:56.594Z,17.16
2016-09-12T03:40:56.051Z,17.15
2016-09-12T03:41:56.041Z,17.12
2016-09-12T03:42:56.371Z,17.21
2016-09-12T03:43:56.334Z,17.12
2016-09-12T03:44:56.145Z,17.12
2016-09-12T03:45:56.025Z,17.14
2016-09-12T03:47:56.022Z,17.25
2016-09-12T03:48:56.113Z,17.11
2016-09-12T03:49:56.325Z,17.12
2016-09-12T03:50:56.040Z,17.21
2016-09-12T03:51:56.021Z,17.11
2016-09-12T03:52:56.025Z,17.12
2016-09-12T03:53:56.039Z,17.18
2016-09-12T03:54:56.004Z,17.12
2016-09-12T03:55:55.994Z,17.12
2016-09-12T03:56:56.074Z,17.14
2016-09-12T03:57:55.992Z,17.15
2016-09-12T03:58:55.992Z,17.06
2016-09-12T03:59:56.001Z,17.12
2016-09-12T04:00:56.026Z,17.12
2016-09-12T04:01:55.977Z,17.07
2016-09-12T04:02:56.005Z,17.12
2016-09-12T04:03:55.981Z,17.07
2016-09-12T04:04:56.012Z,17.08
2016-09-12T04:05:55.986Z,17.07
2016-09-12T04:06:56.143Z,17.06
2016-09-12T04:07:55.982Z,17.04
2016-09-12T04:08:56.011Z,17.11
2016-09-12T04:09:55.984Z,17.11
2016-09-12T04:10:56.125Z,17.04
2016-09-12T04:11:55.956Z,17.03
2016-09-12T04:12:56.196Z,17.01
2016-09-12T04:13:55.947Z,16.98
2016-09-12T04:14:55.968Z,16.98
2016-09-12T04:15:55.950Z,16.96
2016-09-12T04:16:56.099Z,17
2016-09-12T04:17:56.755Z,16.96
2016-09-12T04:18:55.935Z,16.97
2016-09-12T04:19:55.962Z,16.97
2016-09-12T04:20:55.992Z,17.04
2016-09-12T04:21:55.926Z,16.98
2016-09-12T04:22:55.995Z,16.98
2016-09-12T04:23:55.925Z,16.97
2016-09-12T04:24:55.934Z,16.97
2016-09-12T04:25:56.219Z,17
2016-09-12T04:26:55.906Z,17
2016-09-12T04:27:55.911Z,16.91
2016-09-12T04:28:55.916Z,16.98
2016-09-12T04:29:55.915Z,16.97
2016-09-12T04:30:55.899Z,16.94
2016-09-12T04:31:56.224Z,16.89
2016-09-12T04:32:56.207Z,16.89
2016-09-12T04:33:55.989Z,16.91
2016-09-12T04:34:55.949Z,16.89
2016-09-12T04:35:55.910Z,16.86
2016-09-12T04:36:56.181Z,16.89
2016-09-12T04:37:55.891Z,16.91
2016-09-12T04:38:55.928Z,16.85
2016-09-12T04:39:56.184Z,16.89
2016-09-12T04:40:55.869Z,16.93
2016-09-12T04:41:55.862Z,16.86
2016-09-12T04:42:55.877Z,16.91
2016-09-12T04:43:56.164Z,16.93
2016-09-12T04:44:55.872Z,16.83
2016-09-12T04:46:57.901Z,16.89
2016-09-12T04:47:56.170Z,16.88
2016-09-12T04:48:56.165Z,16.88
2016-09-12T04:49:55.966Z,16.86
2016-09-12T04:50:55.927Z,16.97
2016-09-12T04:51:56.213Z,16.94
2016-09-12T04:52:56.027Z,16.96
2016-09-12T04:53:57.513Z,16.96
2016-09-12T04:54:57.894Z,17.01
2016-09-12T04:55:56.186Z,17.03
2016-09-12T04:56:57.108Z,17.06
2016-09-12T04:57:56.426Z,17.11
2016-09-12T04:58:56.126Z,17.08
2016-09-12T04:59:56.122Z,17.15
2016-09-12T05:00:55.810Z,17.14
2016-09-12T05:01:56.022Z,17.16
2016-09-12T05:02:57.853Z,17.26
2016-09-12T05:03:55.851Z,17.3
2016-09-12T05:05:10.925Z,17.41
2016-09-12T05:05:55.801Z,17.4
2016-09-12T05:06:56.107Z,17.48
2016-09-12T05:07:55.789Z,17.58
2016-09-12T05:08:55.793Z,17.58
2016-09-12T05:09:55.799Z,17.71
2016-09-12T05:10:55.789Z,17.77
2016-09-12T05:11:56.416Z,17.92
2016-09-12T05:12:56.394Z,17.89
2016-09-12T05:13:55.791Z,18.07
2016-09-12T05:14:55.776Z,18.14
2016-09-12T05:15:55.795Z,18.21
2016-09-12T05:16:56.381Z,18.29
2016-09-12T05:17:55.790Z,18.41
2016-09-12T05:18:55.817Z,18.47
2016-09-12T05:19:55.762Z,18.57
2016-09-12T05:20:55.960Z,18.67
2016-09-12T05:21:55.759Z,18.8
2016-09-12T05:22:55.773Z,19.08
2016-09-12T05:23:55.760Z,19.07
2016-09-12T05:24:55.946Z,19.19
2016-09-12T05:25:55.907Z,19.31
2016-09-12T05:26:56.143Z,19.46
2016-09-12T05:27:56.062Z,19.66
2016-09-12T05:28:55.748Z,19.76
2016-09-12T05:29:55.756Z,19.88
2016-09-12T05:30:56.082Z,19.95
2016-09-12T05:31:56.052Z,20.1
2016-09-12T05:32:55.757Z,20.14
2016-09-12T05:33:55.749Z,20.26
2016-09-12T05:34:55.753Z,20.38
2016-09-12T05:35:55.775Z,20.55
2016-09-12T05:36:56.065Z,20.7
2016-09-12T05:37:55.763Z,20.91
2016-09-12T05:38:55.913Z,21.03
2016-09-12T05:39:55.765Z,21.1
2016-09-12T05:40:55.751Z,21.19
2016-09-12T05:41:55.762Z,21.37
2016-09-12T05:42:56.077Z,21.49
2016-09-12T05:43:55.769Z,21.61
2016-09-12T05:44:55.836Z,21.74
2016-09-12T05:45:56.986Z,21.75
2016-09-12T05:46:55.865Z,21.91
2016-09-12T05:47:55.785Z,21.98
2016-09-12T05:48:55.762Z,22.15
2016-09-12T05:49:56.072Z,22.28
2016-09-12T05:50:55.782Z,22.37
2016-09-12T05:51:55.779Z,22.51
2016-09-12T05:52:55.779Z,22.58
2016-09-12T05:53:56.128Z,22.82
2016-09-12T05:54:55.805Z,22.83
2016-09-12T05:55:56.086Z,22.91
2016-09-12T05:56:55.777Z,23.04
2016-09-12T05:57:55.778Z,23.2
2016-09-12T05:58:55.798Z,23.12
2016-09-12T05:59:55.811Z,23.35
2016-09-12T06:00:56.242Z,23.38
2016-09-12T06:01:55.927Z,23.5
2016-09-12T06:02:56.108Z,23.51
2016-09-12T06:03:58.320Z,23.63
2016-09-12T06:04:57.292Z,23.72
2016-09-12T06:05:58.461Z,23.73
2016-09-12T06:06:56.434Z,23.84
2016-09-12T06:07:55.820Z,23.88
2016-09-12T06:08:56.898Z,23.98
2016-09-12T06:09:56.195Z,24.13
2016-09-12T06:10:55.823Z,24.22
2016-09-12T06:11:56.903Z,24.24
2016-09-12T06:12:57.450Z,24.34
2016-09-12T06:13:58.370Z,24.47
2016-09-12T06:14:57.928Z,24.49
2016-09-12T06:15:56.197Z,24.68
2016-09-12T06:16:55.866Z,24.83
2016-09-12T06:17:56.987Z,24.81
2016-09-12T06:18:56.259Z,24.99
2016-09-12T06:19:56.882Z,25.05
2016-09-12T06:20:58.445Z,25.14
2016-09-12T06:23:11.056Z,25.4
2016-09-12T06:24:30.591Z,25.6
2016-09-12T06:24:39.878Z,25.62
2016-09-12T06:25:40.138Z,25.75
2016-09-12T06:26:39.386Z,25.92
2016-09-12T06:27:39.638Z,25.99
2016-09-12T06:28:39.392Z,26.1
2016-09-12T06:29:39.461Z,26.3
2016-09-12T06:30:39.408Z,26.29
2016-09-12T06:31:39.718Z,26.45
2016-09-12T06:32:39.422Z,26.6
2016-09-12T06:33:39.426Z,26.69
2016-09-12T06:34:39.432Z,26.84
2016-09-12T06:35:39.441Z,26.87
2016-09-12T06:36:39.449Z,27.06
2016-09-12T06:37:39.457Z,27.03
2016-09-12T06:38:39.463Z,27.02
2016-09-12T06:39:39.468Z,27.02
2016-09-12T06:40:43.293Z,27.14
2016-09-12T06:42:10.651Z,27.28
